createdAt,value
2022-08-14T00:02:27.967Z,94713.16
2022-08-14T00:05:39.828Z,94707.00
2022-08-14T00:08:52.985Z,94702.94
2022-08-14T00:12:01.995Z,94704.72
2022-08-14T00:15:19.629Z,94693.56
2022-08-14T00:19:06.253Z,94695.09
2022-08-14T00:21:58.774Z,94695.84
2022-08-14T00:25:09.468Z,94696.31
2022-08-14T00:28:17.976Z,94692.91
2022-08-14T00:31:35.088Z,94689.31
2022-08-14T00:34:52.914Z,94689.72
2022-08-14T00:38:02.761Z,94689.38
2022-08-14T00:41:16.670Z,94684.81
2022-08-14T00:44:32.128Z,94683.84
2022-08-14T00:47:45.514Z,94678.81
2022-08-14T00:50:55.024Z,94677.69
2022-08-14T00:54:05.370Z,94676.47
2022-08-14T00:57:29.221Z,94673.91
2022-08-14T01:00:47.553Z,94669.34
2022-08-14T01:04:05.640Z,94667.84
2022-08-14T01:07:21.303Z,94666.72
2022-08-14T01:10:46.149Z,94667.34
2022-08-14T01:14:01.171Z,94665.34
2022-08-14T01:17:13.449Z,94666.41
2022-08-14T01:20:41.694Z,94661.41
2022-08-14T01:23:54.805Z,94653.25
2022-08-14T01:27:07.119Z,94649.69
2022-08-14T01:30:16.935Z,94651.56
2022-08-14T01:33:31.112Z,94645.69
2022-08-14T01:36:59.343Z,94648.16
2022-08-14T01:40:11.163Z,94634.28
2022-08-14T01:43:22.169Z,94634.88
2022-08-14T01:46:37.254Z,94635.03
2022-08-14T01:49:46.484Z,94635.22
2022-08-14T01:53:08.452Z,94632.91
2022-08-14T01:56:20.017Z,94617.19
2022-08-14T01:59:37.817Z,94615.22
2022-08-14T02:02:46.934Z,94601.22
2022-08-14T02:06:04.058Z,94600.28
2022-08-14T02:09:35.313Z,94591.38
2022-08-14T02:12:57.021Z,94581.84
2022-08-14T02:16:21.760Z,94580.81
2022-08-14T02:19:32.603Z,94587.19
2022-08-14T02:22:47.277Z,94587.25
2022-08-14T02:25:56.452Z,94587.75
2022-08-14T02:29:11.776Z,94590.97
2022-08-14T02:32:30.685Z,94585.22
2022-08-14T02:35:48.245Z,94588.72
2022-08-14T02:39:02.052Z,94583.75
2022-08-14T02:42:15.271Z,94570.28
2022-08-14T02:45:38.522Z,94581.47
2022-08-14T02:49:02.507Z,94569.41
2022-08-14T02:52:54.628Z,94567.03
2022-08-14T02:55:44.558Z,94567.03
2022-08-14T02:58:55.738Z,94563.66
2022-08-14T03:02:06.209Z,94560.56
2022-08-14T03:05:36.966Z,94560.94
2022-08-14T03:08:49.351Z,94558.47
2022-08-14T03:11:57.978Z,94562.88
2022-08-14T03:15:19.078Z,94564.44
2022-08-14T03:18:31.097Z,94555.75
2022-08-14T03:21:40.891Z,94559.47
2022-08-14T03:24:49.114Z,94550.53
2022-08-14T03:28:02.601Z,94541.69
2022-08-14T03:31:13.626Z,94532.97
2022-08-14T03:34:24.751Z,94527.63
2022-08-14T03:39:13.278Z,94535.53
2022-08-14T03:41:24.450Z,94527.50
2022-08-14T03:45:18.844Z,94522.78
2022-08-14T03:48:11.094Z,94525.69
2022-08-14T03:51:37.900Z,94523.75
2022-08-14T03:54:52.264Z,94522.00
2022-08-14T03:58:01.108Z,94532.50
2022-08-14T04:01:10.175Z,94532.53
2022-08-14T04:04:18.382Z,94525.22
2022-08-14T04:07:28.325Z,94514.41
2022-08-14T04:10:41.170Z,94518.00
2022-08-14T04:13:50.038Z,94520.53
2022-08-14T04:16:58.611Z,94519.22
2022-08-14T04:20:09.984Z,94517.94
2022-08-14T04:23:23.654Z,94517.06
2022-08-14T04:26:42.382Z,94518.72
2022-08-14T04:29:51.736Z,94526.00
2022-08-14T04:33:06.390Z,94523.75
2022-08-14T04:36:19.141Z,94522.38
2022-08-14T04:39:46.990Z,94508.56
2022-08-14T04:43:22.853Z,94508.91
2022-08-14T04:46:56.472Z,94500.75
2022-08-14T04:49:59.305Z,94508.88
2022-08-14T04:53:13.773Z,94504.91
2022-08-14T04:56:31.507Z,94499.66
2022-08-14T04:59:43.474Z,94501.97
2022-08-14T05:02:51.986Z,94494.09
2022-08-14T05:06:05.221Z,94489.69
2022-08-14T05:09:33.429Z,94495.81
2022-08-14T05:13:14.320Z,94476.31
2022-08-14T05:16:13.247Z,94468.59
2022-08-14T05:19:28.999Z,94463.88
2022-08-14T05:22:39.095Z,94464.03
2022-08-14T05:25:49.270Z,94467.75
2022-08-14T05:29:02.168Z,94471.84
2022-08-14T05:32:10.918Z,94473.56
2022-08-14T05:35:20.663Z,94473.28
2022-08-14T05:38:35.266Z,94476.16
2022-08-14T05:41:53.566Z,94480.44
2022-08-14T05:45:11.251Z,94484.03
2022-08-14T05:48:23.470Z,94473.09
2022-08-14T05:51:41.725Z,94477.94
2022-08-14T05:54:49.911Z,94487.22
2022-08-14T05:58:01.645Z,94480.22
2022-08-14T06:01:11.415Z,94480.09
2022-08-14T06:04:21.240Z,94479.91
2022-08-14T06:07:29.475Z,94479.44
2022-08-14T06:10:37.954Z,94489.06
2022-08-14T06:13:46.152Z,94474.75
2022-08-14T06:16:55.684Z,94484.00
2022-08-14T06:20:04.733Z,94483.19
2022-08-14T06:23:12.980Z,94475.50
2022-08-14T06:26:22.797Z,94469.97
2022-08-14T06:29:40.115Z,94480.75
2022-08-14T06:32:52.977Z,94489.50
2022-08-14T06:36:01.530Z,94493.22
2022-08-14T06:39:11.565Z,94481.84
2022-08-14T06:42:33.102Z,94490.75
2022-08-14T06:45:50.217Z,94486.13
2022-08-14T06:49:03.845Z,94480.47
2022-08-14T06:52:16.126Z,94474.66
2022-08-14T06:55:28.178Z,94471.56
2022-08-14T06:58:37.663Z,94471.75
2022-08-14T07:02:03.512Z,94473.97
2022-08-14T07:05:29.653Z,94454.59
2022-08-14T07:08:37.864Z,94458.09
2022-08-14T07:11:46.030Z,94451.50
2022-08-14T07:15:01.056Z,94456.34
2022-08-14T07:18:15.563Z,94449.84
2022-08-14T07:21:25.457Z,94436.44
2022-08-14T07:24:34.642Z,94429.06
2022-08-14T07:27:44.482Z,94424.66
2022-08-14T07:31:04.174Z,94419.56
2022-08-14T07:34:13.585Z,94414.53
2022-08-14T07:37:43.192Z,94419.69
2022-08-14T07:40:53.303Z,94411.88
2022-08-14T07:44:22.627Z,94412.59
2022-08-14T07:47:29.773Z,94404.09
2022-08-14T07:50:39.416Z,94402.44
2022-08-14T07:53:49.513Z,94400.75
2022-08-14T07:57:06.293Z,94400.59
2022-08-14T08:00:31.285Z,94393.63
2022-08-14T08:03:49.463Z,94381.00
2022-08-14T08:07:03.449Z,94391.47
2022-08-14T08:11:02.224Z,94388.66
2022-08-14T08:14:10.830Z,94387.41
2022-08-14T08:17:26.322Z,94389.50
2022-08-14T08:20:46.517Z,94398.56
2022-08-14T08:24:01.609Z,94390.88
2022-08-14T08:27:21.410Z,94389.38
2022-08-14T08:30:32.502Z,94399.78
2022-08-14T08:33:43.668Z,94397.03
2022-08-14T08:37:05.157Z,94392.44
2022-08-14T08:40:30.971Z,94405.16
2022-08-14T08:43:46.760Z,94400.06
2022-08-14T08:46:58.849Z,94400.13
2022-08-14T08:50:23.033Z,94400.97
2022-08-14T08:53:33.976Z,94396.19
2022-08-14T08:56:45.427Z,94391.09
2022-08-14T08:59:58.823Z,94384.75
2022-08-14T09:03:11.794Z,94390.97
2022-08-14T09:06:54.523Z,94383.19
2022-08-14T09:09:59.180Z,94391.19
2022-08-14T09:13:08.599Z,94380.16
2022-08-14T09:16:23.605Z,94387.13
2022-08-14T09:19:33.292Z,94389.66
2022-08-14T09:22:48.168Z,94378.97
2022-08-14T09:26:00.158Z,94371.69
2022-08-14T09:29:11.122Z,94359.66
2022-08-14T09:32:58.937Z,94365.34
2022-08-14T09:36:35.220Z,94380.56
2022-08-14T09:40:01.415Z,94380.88
2022-08-14T09:43:29.763Z,94378.56
2022-08-14T09:46:39.011Z,94364.53
2022-08-14T09:49:53.314Z,94362.97
2022-08-14T09:53:10.460Z,94360.22
2022-08-14T09:56:30.250Z,94358.31
2022-08-14T09:59:46.446Z,94371.22
2022-08-14T10:03:05.635Z,94372.06
2022-08-14T10:06:19.893Z,94359.53
2022-08-14T10:09:33.235Z,94358.56
2022-08-14T10:12:48.459Z,94356.56
2022-08-14T10:16:01.241Z,94340.69
2022-08-14T10:19:13.740Z,94352.66
2022-08-14T10:23:14.934Z,94352.19
2022-08-14T10:26:05.965Z,94342.19
2022-08-14T10:29:23.491Z,94348.34
2022-08-14T10:32:51.885Z,94340.53
2022-08-14T10:36:02.797Z,94322.13
2022-08-14T10:39:22.634Z,94329.72
2022-08-14T10:42:38.230Z,94329.34
2022-08-14T10:46:21.579Z,94325.25
2022-08-14T10:49:30.815Z,94329.34
2022-08-14T10:52:42.252Z,94313.81
2022-08-14T10:56:03.596Z,94309.19
2022-08-14T10:59:13.299Z,94300.19
2022-08-14T11:02:44.823Z,94291.81
2022-08-14T11:06:01.171Z,94290.16
2022-08-14T11:09:17.061Z,94289.22
2022-08-14T11:12:40.540Z,94279.09
2022-08-14T11:15:50.313Z,94278.84
2022-08-14T11:19:06.192Z,94274.00
2022-08-14T11:22:55.501Z,94264.59
2022-08-14T11:25:53.375Z,94262.63
2022-08-14T11:29:05.843Z,94255.75
2022-08-14T11:32:14.178Z,94259.47
2022-08-14T11:35:26.281Z,94250.28
2022-08-14T11:38:53.875Z,94244.69
2022-08-14T11:42:07.619Z,94244.44
2022-08-14T11:45:37.395Z,94240.88
2022-08-14T11:49:03.576Z,94225.28
2022-08-14T11:52:13.966Z,94230.19
2022-08-14T11:55:26.244Z,94228.06
2022-08-14T11:58:37.300Z,94221.16
2022-08-14T12:01:47.182Z,94211.75
2022-08-14T12:04:56.388Z,94209.72
2022-08-14T12:08:12.007Z,94210.22
2022-08-14T12:11:23.073Z,94212.13
2022-08-14T12:14:36.006Z,94210.53
2022-08-14T12:17:50.548Z,94213.56
2022-08-14T12:21:00.188Z,94205.47
2022-08-14T12:24:36.011Z,94200.69
2022-08-14T12:27:52.573Z,94192.16
2022-08-14T12:31:20.729Z,94190.69
2022-08-14T12:34:35.433Z,94183.38
2022-08-14T12:37:50.662Z,94174.56
2022-08-14T12:40:58.962Z,94174.59
2022-08-14T12:44:08.837Z,94173.34
2022-08-14T12:47:20.275Z,94176.47
2022-08-14T12:50:40.539Z,94175.91
2022-08-14T12:53:50.785Z,94168.38
2022-08-14T12:57:08.194Z,94170.63
2022-08-14T13:00:22.616Z,94160.34
2022-08-14T13:03:32.336Z,94148.94
2022-08-14T13:06:49.372Z,94151.72
2022-08-14T13:09:59.788Z,94146.47
2022-08-14T13:13:15.220Z,94135.47
2022-08-14T13:16:33.679Z,94136.44
2022-08-14T13:19:47.817Z,94131.53
2022-08-14T13:23:00.212Z,94128.47
2022-08-14T13:26:09.634Z,94126.47
2022-08-14T13:29:20.959Z,94124.22
2022-08-14T13:32:29.885Z,94120.69
2022-08-14T13:35:39.670Z,94114.03
2022-08-14T13:38:51.151Z,94122.81
2022-08-14T13:42:04.329Z,94102.53
2022-08-14T13:45:17.934Z,94096.91
2022-08-14T13:48:33.395Z,94089.44
2022-08-14T13:51:50.424Z,94090.31
2022-08-14T13:55:07.197Z,94087.16
2022-08-14T13:58:33.604Z,94086.91
2022-08-14T14:01:44.717Z,94076.63
2022-08-14T14:04:53.615Z,94069.69
2022-08-14T14:08:18.583Z,94074.56
2022-08-14T14:11:39.083Z,94075.91
2022-08-14T14:14:51.845Z,94074.72
2022-08-14T14:18:03.893Z,94070.00
2022-08-14T14:21:12.512Z,94057.34
2022-08-14T14:24:23.198Z,94069.63
2022-08-14T14:27:40.893Z,94061.19
2022-08-14T14:30:53.189Z,94058.34
2022-08-14T14:34:07.637Z,94054.94
2022-08-14T14:37:23.023Z,94052.97
2022-08-14T14:40:54.371Z,94049.28
2022-08-14T14:44:15.823Z,94040.25
2022-08-14T14:47:26.619Z,94044.72
2022-08-14T14:50:38.330Z,94038.53
2022-08-14T14:53:49.611Z,94034.66
2022-08-14T14:56:59.823Z,94028.66
2022-08-14T15:00:19.391Z,94021.66
2022-08-14T15:03:28.877Z,94024.47
2022-08-14T15:06:38.966Z,94028.34
2022-08-14T15:09:56.258Z,94008.75
2022-08-14T15:13:06.656Z,94015.03
2022-08-14T15:16:17.284Z,94010.81
2022-08-14T15:19:25.498Z,94006.69
2022-08-14T15:22:39.558Z,94006.19
2022-08-14T15:25:53.372Z,94014.59
2022-08-14T15:29:05.699Z,94003.84
2022-08-14T15:32:21.072Z,94003.31
2022-08-14T15:35:34.113Z,94011.78
2022-08-14T15:38:42.859Z,94011.66
2022-08-14T15:41:57.221Z,94000.63
2022-08-14T15:45:11.676Z,94002.97
2022-08-14T15:48:22.609Z,94000.94
2022-08-14T15:51:32.001Z,94006.19
2022-08-14T15:54:43.162Z,93993.91
2022-08-14T15:58:03.617Z,93988.00
2022-08-14T16:01:50.845Z,93993.38
2022-08-14T16:04:53.024Z,93986.72
2022-08-14T16:08:24.297Z,93979.44
2022-08-14T16:11:36.895Z,93980.22
2022-08-14T16:14:45.582Z,93983.09
2022-08-14T16:17:55.311Z,93978.00
2022-08-14T16:21:12.162Z,93969.53
2022-08-14T16:24:28.120Z,93969.72
2022-08-14T16:27:40.887Z,93973.44
2022-08-14T16:30:52.647Z,93976.75
2022-08-14T16:34:00.839Z,93978.25
2022-08-14T16:37:34.087Z,93969.22
2022-08-14T16:40:45.765Z,93963.03
2022-08-14T16:43:59.381Z,93967.34
2022-08-14T16:47:12.830Z,93969.47
2022-08-14T16:50:43.089Z,93963.03
2022-08-14T16:53:51.381Z,93970.13
2022-08-14T16:57:17.093Z,93974.09
2022-08-14T17:00:33.059Z,93960.22
2022-08-14T17:04:03.456Z,93961.44
2022-08-14T17:07:15.423Z,93954.94
2022-08-14T17:10:28.224Z,93958.53
2022-08-14T17:13:59.169Z,93970.72
2022-08-14T17:17:05.885Z,93968.25
2022-08-14T17:20:39.217Z,93980.75
2022-08-14T17:23:46.072Z,93982.41
2022-08-14T17:26:55.988Z,93981.06
2022-08-14T17:30:32.614Z,93989.94
2022-08-14T17:33:40.465Z,93976.25
2022-08-14T17:36:56.102Z,93982.19
2022-08-14T17:40:15.893Z,93978.41
2022-08-14T17:43:41.350Z,93983.09
2022-08-14T17:46:55.248Z,93983.41
2022-08-14T17:50:58.627Z,93979.19
2022-08-14T17:53:36.993Z,93988.63
2022-08-14T17:57:13.118Z,93984.53
2022-08-14T18:00:23.568Z,93983.56
2022-08-14T18:03:44.965Z,93980.44
2022-08-14T18:07:09.064Z,93984.03
2022-08-14T18:10:55.614Z,93988.91
2022-08-14T18:14:04.022Z,93991.81
2022-08-14T18:17:16.409Z,93991.84
2022-08-14T18:21:40.783Z,94001.44
2022-08-14T18:23:55.152Z,93997.69
2022-08-14T18:27:08.863Z,94001.06
2022-08-14T18:30:36.461Z,94000.69
2022-08-14T18:33:57.916Z,94001.16
2022-08-14T18:37:19.929Z,93999.00
2022-08-14T18:40:34.979Z,94002.53
2022-08-14T18:43:59.258Z,94011.63
2022-08-14T18:47:25.497Z,94016.41
2022-08-14T18:50:48.828Z,94014.47
2022-08-14T18:54:02.323Z,94018.81
2022-08-14T18:57:10.770Z,94026.38
2022-08-14T19:00:58.731Z,94028.78
2022-08-14T19:04:08.289Z,94025.28
2022-08-14T19:07:19.141Z,94034.22
2022-08-14T19:10:37.470Z,94030.75
2022-08-14T19:13:51.775Z,94030.78
2022-08-14T19:17:00.052Z,94037.97
2022-08-14T19:20:09.496Z,94038.94
2022-08-14T19:23:23.437Z,94036.47
2022-08-14T19:27:19.193Z,94042.84
2022-08-14T19:30:29.113Z,94044.72
2022-08-14T19:33:53.712Z,94043.94
2022-08-14T19:37:06.022Z,94040.13
2022-08-14T19:40:28.983Z,94039.84
2022-08-14T19:43:55.942Z,94043.69
2022-08-14T19:47:10.883Z,94045.97
2022-08-14T19:50:37.915Z,94055.97
2022-08-14T19:53:56.944Z,94046.59
2022-08-14T19:57:05.831Z,94056.34
2022-08-14T20:00:28.270Z,94057.19
2022-08-14T20:04:00.341Z,94065.41
2022-08-14T20:07:26.761Z,94054.75
2022-08-14T20:11:07.975Z,94060.28
2022-08-14T20:14:12.061Z,94056.91
2022-08-14T20:17:30.983Z,94058.88
2022-08-14T20:20:48.559Z,94060.56
2022-08-14T20:24:31.104Z,94066.00
2022-08-14T20:27:40.213Z,94080.34
2022-08-14T20:30:53.706Z,94073.13
2022-08-14T20:34:24.375Z,94079.31
2022-08-14T20:37:41.125Z,94081.31
2022-08-14T20:40:52.628Z,94080.94
2022-08-14T20:44:20.967Z,94081.00
2022-08-14T20:47:50.831Z,94082.91
2022-08-14T20:51:26.266Z,94087.31
2022-08-14T20:54:50.126Z,94094.41
2022-08-14T20:58:09.556Z,94094.34
2022-08-14T21:01:35.799Z,94082.78
2022-08-14T21:04:56.340Z,94095.66
2022-08-14T21:08:08.336Z,94095.25
2022-08-14T21:11:31.601Z,94088.03
2022-08-14T21:14:39.799Z,94098.03
2022-08-14T21:18:01.303Z,94096.63
2022-08-14T21:21:16.136Z,94103.16
2022-08-14T21:24:39.842Z,94097.50
2022-08-14T21:27:57.101Z,94101.03
2022-08-14T21:31:09.034Z,94103.84
2022-08-14T21:34:30.970Z,94103.47
2022-08-14T21:37:47.681Z,94100.06
2022-08-14T21:40:58.219Z,94096.69
2022-08-14T21:44:17.551Z,94082.53
2022-08-14T21:47:26.590Z,94079.84
2022-08-14T21:51:00.701Z,94079.91
2022-08-14T21:54:31.933Z,94085.38
2022-08-14T21:57:55.801Z,94087.34
2022-08-14T22:01:14.404Z,94091.97
2022-08-14T22:04:31.904Z,94088.91
2022-08-14T22:07:43.852Z,94099.19
2022-08-14T22:10:54.833Z,94093.03
2022-08-14T22:14:25.802Z,94099.53
2022-08-14T22:17:35.084Z,94096.63
2022-08-14T22:20:44.697Z,94100.34
2022-08-14T22:23:55.313Z,94110.66
2022-08-14T22:27:06.913Z,94098.72
2022-08-14T22:30:18.621Z,94094.50
2022-08-14T22:33:31.313Z,94090.97
2022-08-14T22:36:49.655Z,94100.66
2022-08-14T22:40:51.646Z,94096.06
2022-08-14T22:43:27.581Z,94090.59
2022-08-14T22:46:43.543Z,94086.88
2022-08-14T22:50:28.805Z,94092.94
2022-08-14T22:53:20.345Z,94089.00
2022-08-14T22:56:31.945Z,94087.53
2022-08-14T22:59:40.553Z,94082.44
2022-08-14T23:02:49.804Z,94080.63
2022-08-14T23:07:02.436Z,94079.84
2022-08-14T23:09:38.615Z,94083.19
2022-08-14T23:12:55.097Z,94082.81
2022-08-14T23:16:03.376Z,94080.44
2022-08-14T23:19:11.740Z,94082.28
2022-08-14T23:22:21.186Z,94082.22
2022-08-14T23:25:59.573Z,94080.22
2022-08-14T23:29:02.988Z,94082.91
2022-08-14T23:32:15.695Z,94086.38
2022-08-14T23:35:29.065Z,94080.22
2022-08-14T23:38:42.053Z,94082.59
2022-08-14T23:41:53.744Z,94078.28
2022-08-14T23:45:03.610Z,94077.44
2022-08-14T23:48:20.704Z,94079.72
2022-08-14T23:51:36.637Z,94071.66
2022-08-14T23:54:49.116Z,94066.97
2022-08-14T23:58:00.481Z,94076.56
